createdAt,value
2019-01-09T00:01:28.351Z,3.60
2019-01-09T00:04:09.210Z,3.70
2019-01-09T00:06:56.355Z,3.70
2019-01-09T00:13:00.746Z,3.60
2019-01-09T00:15:41.314Z,3.70
2019-01-09T00:18:21.786Z,3.70
2019-01-09T00:21:02.832Z,3.60
2019-01-09T00:23:43.595Z,3.60
2019-01-09T00:26:24.518Z,3.60
2019-01-09T00:29:04.926Z,3.60
2019-01-09T00:31:45.653Z,3.50
2019-01-09T00:34:26.043Z,3.30
2019-01-09T00:37:06.955Z,3.30
2019-01-09T00:39:47.609Z,3.20
2019-01-09T00:42:27.963Z,3.20
2019-01-09T00:48:11.661Z,3.20
2019-01-09T00:50:52.126Z,3.20
2019-01-09T00:53:32.716Z,3.10
2019-01-09T00:56:13.366Z,3.10
2019-01-09T00:58:54.217Z,3.00
2019-01-09T01:01:34.465Z,3.00
2019-01-09T01:04:14.936Z,3.00
2019-01-09T01:06:55.690Z,2.90
2019-01-09T01:09:36.338Z,3.00
2019-01-09T01:12:17.138Z,3.00
2019-01-09T01:14:57.537Z,3.00
2019-01-09T01:17:37.954Z,3.00
2019-01-09T01:20:18.723Z,3.00
2019-01-09T01:22:59.474Z,3.00
2019-01-09T01:25:40.159Z,3.10
2019-01-09T01:28:21.031Z,3.20
2019-01-09T01:31:02.368Z,3.20
2019-01-09T01:33:43.106Z,3.30
2019-01-09T01:36:24.304Z,3.30
2019-01-09T01:39:04.850Z,3.40
2019-01-09T01:41:45.303Z,3.40
2019-01-09T01:44:25.763Z,3.40
2019-01-09T01:47:06.135Z,3.40
2019-01-09T01:49:46.945Z,3.50
2019-01-09T01:52:27.710Z,3.50
2019-01-09T01:55:08.502Z,3.50
2019-01-09T01:57:49.365Z,3.60
2019-01-09T02:00:29.694Z,3.60
2019-01-09T02:03:10.497Z,3.70
2019-01-09T02:05:51.046Z,3.70
2019-01-09T02:08:31.539Z,3.70
2019-01-09T02:11:14.271Z,3.70
2019-01-09T02:13:55.286Z,3.70
2019-01-09T02:16:35.962Z,3.70
2019-01-09T02:19:16.783Z,3.70
2019-01-09T02:21:57.214Z,3.70
2019-01-09T02:24:37.578Z,3.70
2019-01-09T02:27:18.815Z,3.70
2019-01-09T02:30:00.436Z,3.60
2019-01-09T02:32:41.619Z,3.60
2019-01-09T02:35:22.078Z,3.60
2019-01-09T02:38:03.050Z,3.60
2019-01-09T02:40:43.853Z,3.60
2019-01-09T02:43:24.938Z,3.60
2019-01-09T02:46:05.510Z,3.60
2019-01-09T02:48:48.617Z,3.70
2019-01-09T02:51:28.859Z,3.50
2019-01-09T02:54:09.594Z,3.70
2019-01-09T02:56:50.531Z,3.70
2019-01-09T02:59:31.179Z,3.70
2019-01-09T03:02:11.411Z,3.60
2019-01-09T03:04:51.827Z,3.70
2019-01-09T03:07:32.274Z,3.80
2019-01-09T03:10:12.839Z,3.80
2019-01-09T03:12:53.457Z,3.90
2019-01-09T03:15:34.251Z,3.70
2019-01-09T03:18:14.750Z,3.80
2019-01-09T03:20:55.922Z,3.90
2019-01-09T03:23:36.257Z,3.90
2019-01-09T03:26:16.716Z,3.90
2019-01-09T03:28:57.437Z,3.90
2019-01-09T03:31:38.757Z,3.90
2019-01-09T03:34:19.230Z,4.00
2019-01-09T03:36:59.679Z,4.00
2019-01-09T03:39:40.370Z,3.90
2019-01-09T03:42:21.257Z,3.90
2019-01-09T03:45:01.952Z,3.80
2019-01-09T03:47:42.622Z,3.80
2019-01-09T03:50:23.139Z,3.80
2019-01-09T03:53:03.530Z,3.80
2019-01-09T03:55:44.009Z,3.80
2019-01-09T03:58:24.704Z,3.80
2019-01-09T04:01:05.240Z,3.80
2019-01-09T04:03:46.150Z,3.90
2019-01-09T04:06:26.832Z,3.90
2019-01-09T04:09:07.571Z,3.80
2019-01-09T04:11:48.324Z,3.80
2019-01-09T04:14:28.818Z,3.80
2019-01-09T04:17:10.088Z,3.80
2019-01-09T04:19:50.734Z,3.10
2019-01-09T04:22:32.646Z,3.70
2019-01-09T04:25:14.940Z,3.70
2019-01-09T04:27:56.104Z,3.70
2019-01-09T04:30:36.770Z,3.70
2019-01-09T04:33:17.613Z,3.70
2019-01-09T04:35:58.066Z,3.70
2019-01-09T04:38:38.774Z,3.60
2019-01-09T04:41:19.829Z,3.60
2019-01-09T04:44:00.130Z,3.60
2019-01-09T04:46:40.682Z,3.60
2019-01-09T04:49:21.030Z,3.60
2019-01-09T04:52:01.837Z,3.60
2019-01-09T04:54:42.422Z,3.60
2019-01-09T04:57:23.137Z,3.60
2019-01-09T05:00:03.838Z,3.60
2019-01-09T05:02:44.170Z,3.60
2019-01-09T05:05:24.818Z,3.50
2019-01-09T05:08:05.174Z,3.40
2019-01-09T05:10:45.557Z,3.50
2019-01-09T05:13:26.395Z,3.50
2019-01-09T05:16:06.697Z,3.50
2019-01-09T05:18:47.178Z,3.50
2019-01-09T05:21:27.458Z,3.40
2019-01-09T05:24:07.795Z,3.40
2019-01-09T05:26:48.259Z,3.30
2019-01-09T05:29:28.997Z,3.30
2019-01-09T05:32:09.895Z,3.40
2019-01-09T05:34:50.594Z,3.20
2019-01-09T05:37:30.935Z,3.30
2019-01-09T05:40:11.982Z,3.20
2019-01-09T05:42:52.673Z,3.30
2019-01-09T05:45:33.222Z,3.30
2019-01-09T05:48:13.756Z,3.30
2019-01-09T05:50:54.519Z,3.30
2019-01-09T05:53:35.249Z,3.20
2019-01-09T05:56:16.151Z,3.30
2019-01-09T05:58:57.047Z,3.30
2019-01-09T06:01:37.779Z,3.20
2019-01-09T06:04:18.493Z,3.30
2019-01-09T06:06:58.951Z,3.20
2019-01-09T06:09:39.170Z,3.20
2019-01-09T06:12:19.797Z,3.20
2019-01-09T06:15:00.471Z,3.20
2019-01-09T06:17:41.489Z,3.20
2019-01-09T06:20:22.106Z,3.20
2019-01-09T06:23:03.027Z,3.10
2019-01-09T06:25:43.607Z,3.10
2019-01-09T06:28:24.448Z,3.10
2019-01-09T06:31:05.614Z,3.00
2019-01-09T06:33:45.973Z,3.10
2019-01-09T06:36:27.045Z,3.10
2019-01-09T06:39:07.802Z,3.00
2019-01-09T06:41:48.622Z,3.00
2019-01-09T06:44:29.726Z,2.90
2019-01-09T06:47:10.662Z,2.90
2019-01-09T06:49:51.578Z,2.90
2019-01-09T06:52:32.260Z,2.90
2019-01-09T06:55:13.323Z,3.00
2019-01-09T06:57:54.161Z,3.00
2019-01-09T07:00:34.794Z,3.00
2019-01-09T07:03:15.273Z,3.00
2019-01-09T07:05:56.066Z,3.00
2019-01-09T07:08:36.884Z,2.90
2019-01-09T07:11:17.249Z,3.00
2019-01-09T07:13:57.905Z,2.90
2019-01-09T07:16:38.544Z,2.90
2019-01-09T07:19:19.288Z,2.90
2019-01-09T07:21:59.951Z,2.90
2019-01-09T07:24:40.626Z,2.90
2019-01-09T07:27:21.176Z,2.90
2019-01-09T07:30:01.819Z,2.90
2019-01-09T07:32:42.558Z,3.00
2019-01-09T07:35:23.544Z,3.00
2019-01-09T07:38:04.674Z,3.00
2019-01-09T07:40:45.374Z,3.00
2019-01-09T07:43:26.233Z,3.10
2019-01-09T07:46:06.544Z,3.10
2019-01-09T07:48:47.315Z,3.10
2019-01-09T07:51:28.135Z,3.00
2019-01-09T07:54:08.838Z,3.00
2019-01-09T07:56:49.373Z,3.10
2019-01-09T07:59:30.214Z,3.20
2019-01-09T08:02:10.955Z,3.30
2019-01-09T08:04:51.709Z,3.30
2019-01-09T08:07:32.605Z,3.30
2019-01-09T08:10:13.126Z,3.10
2019-01-09T08:12:53.503Z,3.20
2019-01-09T08:15:33.810Z,3.30
2019-01-09T08:18:14.238Z,3.20
2019-01-09T08:20:54.559Z,3.20
2019-01-09T08:23:35.832Z,3.20
2019-01-09T08:28:51.422Z,3.30
2019-01-09T08:31:33.614Z,3.30
2019-01-09T08:34:14.066Z,3.30
2019-01-09T08:36:54.962Z,3.30
2019-01-09T08:39:35.638Z,3.30
2019-01-09T08:42:16.573Z,3.30
2019-01-09T08:44:57.389Z,3.30
2019-01-09T08:47:38.058Z,3.30
2019-01-09T08:50:18.802Z,3.30
2019-01-09T08:52:59.762Z,3.30
2019-01-09T08:55:40.667Z,3.30
2019-01-09T08:58:21.381Z,3.40
2019-01-09T09:01:01.866Z,3.40
2019-01-09T09:03:42.547Z,3.40
2019-01-09T09:06:23.021Z,3.50
2019-01-09T09:09:03.910Z,3.50
2019-01-09T09:11:44.414Z,3.50
2019-01-09T09:14:25.314Z,3.50
2019-01-09T09:17:05.976Z,3.50
2019-01-09T09:19:47.069Z,3.60
2019-01-09T09:22:27.561Z,3.60
2019-01-09T09:25:08.470Z,3.60
2019-01-09T09:27:48.929Z,3.60
2019-01-09T09:30:30.038Z,3.60
2019-01-09T09:33:10.824Z,3.70
2019-01-09T09:35:51.578Z,3.70
2019-01-09T09:38:32.286Z,3.70
2019-01-09T09:41:13.033Z,3.80
2019-01-09T09:43:53.478Z,3.80
2019-01-09T09:46:33.938Z,3.80
2019-01-09T09:49:14.446Z,3.80
2019-01-09T09:51:55.604Z,3.80
2019-01-09T09:54:36.621Z,3.80
2019-01-09T09:57:17.501Z,3.80
2019-01-09T09:59:57.758Z,3.80
2019-01-09T10:02:38.555Z,3.80
2019-01-09T10:05:19.181Z,3.80
2019-01-09T10:08:00.081Z,3.90
2019-01-09T10:10:40.415Z,4.10
2019-01-09T10:13:20.883Z,4.20
2019-01-09T10:16:01.402Z,4.20
2019-01-09T10:18:41.771Z,4.30
2019-01-09T10:21:22.198Z,4.40
2019-01-09T10:24:03.218Z,4.50
2019-01-09T10:26:43.986Z,4.50
2019-01-09T10:29:24.374Z,4.50
2019-01-09T10:32:04.759Z,4.40
2019-01-09T10:34:45.314Z,4.40
2019-01-09T10:37:26.050Z,4.40
2019-01-09T10:40:06.375Z,4.30
2019-01-09T10:42:47.466Z,4.40
2019-01-09T10:45:28.030Z,4.40
2019-01-09T10:48:08.690Z,4.40
2019-01-09T10:50:49.190Z,4.50
2019-01-09T10:53:29.918Z,4.60
2019-01-09T10:56:10.626Z,4.60
2019-01-09T10:58:51.197Z,4.60
2019-01-09T11:01:32.003Z,4.50
2019-01-09T11:04:12.711Z,4.50
2019-01-09T11:06:53.070Z,4.50
2019-01-09T11:09:33.578Z,4.50
2019-01-09T11:12:13.878Z,4.40
2019-01-09T11:14:54.321Z,4.30
2019-01-09T11:17:35.209Z,4.40
2019-01-09T11:20:15.909Z,4.40
2019-01-09T11:22:56.654Z,4.40
2019-01-09T11:25:37.593Z,4.30
2019-01-09T11:28:18.781Z,4.30
2019-01-09T11:30:59.714Z,4.40
2019-01-09T11:33:40.059Z,4.30
2019-01-09T11:36:20.715Z,4.30
2019-01-09T11:39:01.383Z,4.30
2019-01-09T11:41:42.021Z,4.30
2019-01-09T11:44:22.831Z,4.40
2019-01-09T11:47:03.594Z,4.30
2019-01-09T11:49:43.994Z,4.30
2019-01-09T11:52:25.046Z,4.30
2019-01-09T11:55:05.673Z,4.40
2019-01-09T11:57:46.022Z,4.40
2019-01-09T12:00:26.901Z,4.50
2019-01-09T12:03:07.644Z,4.70
2019-01-09T12:05:48.542Z,4.80
2019-01-09T12:08:29.714Z,4.90
2019-01-09T12:11:10.502Z,4.90
2019-01-09T12:13:50.855Z,4.90
2019-01-09T12:16:31.209Z,4.90
2019-01-09T12:19:11.482Z,4.80
2019-01-09T12:21:52.258Z,4.70
2019-01-09T12:24:32.788Z,4.70
2019-01-09T12:27:13.094Z,4.60
2019-01-09T12:29:53.727Z,4.70
2019-01-09T12:32:34.578Z,4.60
2019-01-09T12:35:15.119Z,4.50
2019-01-09T12:37:56.009Z,4.50
2019-01-09T12:40:36.603Z,4.60
2019-01-09T12:43:17.527Z,4.60
2019-01-09T12:45:57.843Z,4.50
2019-01-09T12:48:38.137Z,4.40
2019-01-09T12:51:18.451Z,4.40
2019-01-09T12:53:59.257Z,4.40
2019-01-09T12:56:39.909Z,4.40
2019-01-09T12:59:21.767Z,4.30
2019-01-09T13:02:02.919Z,4.20
2019-01-09T13:04:43.734Z,4.20
2019-01-09T13:07:24.594Z,4.20
2019-01-09T13:10:05.363Z,4.20
2019-01-09T13:12:45.646Z,4.10
2019-01-09T13:15:26.181Z,4.10
2019-01-09T13:18:07.151Z,4.00
2019-01-09T13:20:47.787Z,3.90
2019-01-09T13:23:28.670Z,4.00
2019-01-09T13:26:09.346Z,4.00
2019-01-09T13:28:50.050Z,4.00
2019-01-09T13:31:30.634Z,4.00
2019-01-09T13:34:11.342Z,4.00
2019-01-09T13:36:52.246Z,4.10
2019-01-09T13:39:33.346Z,4.00
2019-01-09T13:42:14.090Z,4.00
2019-01-09T13:44:55.046Z,4.00
2019-01-09T13:47:36.074Z,4.10
2019-01-09T13:50:17.372Z,4.00
2019-01-09T13:52:57.680Z,4.00
2019-01-09T13:55:38.750Z,4.00
2019-01-09T13:58:19.369Z,4.00
2019-01-09T14:01:00.648Z,3.90
2019-01-09T14:03:41.394Z,4.00
2019-01-09T14:06:22.610Z,4.00
2019-01-09T14:09:03.804Z,4.00
2019-01-09T14:11:44.453Z,4.00
2019-01-09T14:14:24.814Z,4.00
2019-01-09T14:17:05.238Z,4.00
2019-01-09T14:19:45.750Z,4.00
2019-01-09T14:22:32.972Z,4.00
2019-01-09T14:25:08.607Z,4.00
2019-01-09T14:27:49.378Z,4.00
2019-01-09T14:30:30.531Z,4.00
2019-01-09T14:33:11.144Z,3.90
2019-01-09T14:35:51.935Z,3.90
2019-01-09T14:38:32.353Z,3.90
2019-01-09T14:41:13.081Z,4.00
2019-01-09T14:43:53.305Z,4.00
2019-01-09T14:46:34.053Z,3.90
2019-01-09T14:49:14.794Z,3.90
2019-01-09T14:51:55.990Z,3.90
2019-01-09T14:54:36.478Z,3.90
2019-01-09T14:57:17.275Z,3.80
2019-01-09T14:59:57.633Z,3.70
2019-01-09T15:02:38.245Z,3.80
2019-01-09T15:05:18.897Z,3.70
2019-01-09T15:08:00.097Z,3.80
2019-01-09T15:10:40.691Z,3.80
2019-01-09T15:13:21.047Z,3.80
2019-01-09T15:16:01.710Z,3.80
2019-01-09T15:18:42.577Z,3.80
2019-01-09T15:21:23.383Z,3.80
2019-01-09T15:24:08.641Z,3.70
2019-01-09T15:26:46.967Z,3.70
2019-01-09T15:29:27.379Z,3.80
2019-01-09T15:32:08.103Z,3.70
2019-01-09T15:34:49.201Z,3.60
2019-01-09T15:37:29.891Z,3.60
2019-01-09T15:40:10.362Z,3.70
2019-01-09T15:42:51.583Z,3.70
2019-01-09T15:45:32.094Z,3.60
2019-01-09T15:48:13.007Z,3.60
2019-01-09T15:50:54.296Z,3.60
2019-01-09T15:53:34.971Z,3.60
2019-01-09T15:56:15.703Z,3.60
2019-01-09T15:58:56.427Z,3.60
2019-01-09T16:01:37.048Z,3.70
2019-01-09T16:04:17.796Z,3.60
2019-01-09T16:06:58.302Z,3.60
2019-01-09T16:09:39.178Z,3.50
2019-01-09T16:12:20.041Z,3.60
2019-01-09T16:15:00.820Z,3.50
2019-01-09T16:17:41.931Z,3.50
2019-01-09T16:20:22.518Z,3.50
2019-01-09T16:23:02.840Z,3.50
2019-01-09T16:25:43.600Z,3.50
2019-01-09T16:28:24.363Z,3.50
2019-01-09T16:31:04.983Z,3.50
2019-01-09T16:33:46.009Z,3.50
2019-01-09T16:36:26.369Z,3.50
2019-01-09T16:39:06.683Z,3.50
2019-01-09T16:41:47.192Z,3.50
2019-01-09T16:44:27.962Z,3.60
2019-01-09T16:47:08.652Z,3.40
2019-01-09T16:49:49.123Z,3.50
2019-01-09T16:52:29.843Z,3.40
2019-01-09T16:55:10.942Z,3.50
2019-01-09T16:57:52.570Z,3.50
2019-01-09T17:00:33.290Z,3.40
2019-01-09T17:03:13.669Z,3.40
2019-01-09T17:05:54.058Z,3.40
2019-01-09T17:08:34.558Z,3.40
2019-01-09T17:11:15.279Z,3.40
2019-01-09T17:13:55.985Z,3.40
2019-01-09T17:16:36.766Z,3.40
2019-01-09T17:19:17.838Z,3.50
2019-01-09T17:21:58.307Z,3.50
2019-01-09T17:24:39.158Z,3.60
2019-01-09T17:27:19.759Z,3.50
2019-01-09T17:30:00.749Z,3.50
2019-01-09T17:32:41.919Z,3.40
2019-01-09T17:35:22.767Z,3.50
2019-01-09T17:38:03.327Z,3.50
2019-01-09T17:40:43.879Z,3.50
2019-01-09T17:43:24.795Z,3.50
2019-01-09T17:46:06.159Z,3.40
2019-01-09T17:48:46.692Z,3.40
2019-01-09T17:51:27.627Z,3.40
2019-01-09T17:54:08.336Z,3.50
2019-01-09T17:56:48.642Z,3.40
2019-01-09T17:59:29.422Z,3.40
2019-01-09T18:02:10.003Z,3.40
2019-01-09T18:04:50.951Z,3.40
2019-01-09T18:07:31.280Z,3.40
2019-01-09T18:10:11.779Z,3.50
2019-01-09T18:12:52.344Z,3.40
2019-01-09T18:15:33.896Z,3.40
2019-01-09T18:18:14.523Z,3.40
2019-01-09T18:20:55.056Z,3.40
2019-01-09T18:23:35.673Z,3.30
2019-01-09T18:26:16.315Z,3.40
2019-01-09T18:28:56.995Z,3.30
2019-01-09T18:31:37.778Z,3.30
2019-01-09T18:34:18.336Z,3.30
2019-01-09T18:36:59.094Z,3.30
2019-01-09T18:39:40.084Z,3.20
2019-01-09T18:42:20.684Z,3.30
2019-01-09T18:45:01.430Z,3.30
2019-01-09T18:47:41.963Z,3.30
2019-01-09T18:50:23.035Z,3.20
2019-01-09T18:53:03.709Z,3.30
2019-01-09T18:55:44.379Z,3.30
2019-01-09T18:58:25.343Z,3.20
2019-01-09T19:01:07.835Z,3.30
2019-01-09T19:03:48.542Z,3.20
2019-01-09T19:06:35.013Z,3.20
2019-01-09T19:09:11.767Z,3.10
2019-01-09T19:11:52.448Z,3.30
2019-01-09T19:14:32.942Z,3.20
2019-01-09T19:17:13.841Z,3.20
2019-01-09T19:19:54.321Z,3.20
2019-01-09T19:22:34.702Z,3.10
2019-01-09T19:25:15.231Z,3.10
2019-01-09T19:27:55.522Z,3.10
2019-01-09T19:30:36.049Z,3.00
2019-01-09T19:33:16.487Z,3.10
2019-01-09T19:35:56.899Z,3.10
2019-01-09T19:38:37.675Z,3.00
2019-01-09T19:41:18.058Z,3.00
2019-01-09T19:43:58.728Z,3.00
2019-01-09T19:46:39.565Z,3.00
2019-01-09T19:49:20.262Z,3.00
2019-01-09T19:52:00.946Z,3.00
2019-01-09T19:54:41.509Z,3.00
2019-01-09T19:57:22.525Z,2.90
2019-01-09T20:00:04.723Z,2.90
2019-01-09T20:02:45.454Z,2.90
2019-01-09T20:05:26.242Z,3.00
2019-01-09T20:08:06.954Z,3.00
2019-01-09T20:10:47.674Z,3.00
2019-01-09T20:13:28.472Z,2.90
2019-01-09T20:16:09.475Z,2.90
2019-01-09T20:18:50.356Z,2.90
2019-01-09T20:21:30.887Z,2.90
2019-01-09T20:24:11.703Z,2.90
2019-01-09T20:26:52.977Z,2.90
2019-01-09T20:29:33.593Z,2.90
2019-01-09T20:34:57.362Z,2.90
2019-01-09T20:37:38.570Z,2.90
2019-01-09T20:40:19.853Z,2.90
2019-01-09T20:43:00.340Z,2.90
2019-01-09T20:45:41.239Z,2.90
2019-01-09T20:48:21.742Z,2.90
2019-01-09T20:51:02.919Z,2.90
2019-01-09T20:53:43.443Z,3.00
2019-01-09T20:56:23.781Z,3.00
2019-01-09T20:59:04.521Z,3.00
2019-01-09T21:01:45.183Z,2.90
2019-01-09T21:04:25.874Z,2.90
2019-01-09T21:07:06.584Z,2.90
2019-01-09T21:09:47.855Z,2.90
2019-01-09T21:12:28.595Z,2.90
2019-01-09T21:15:08.934Z,2.80
2019-01-09T21:17:49.350Z,2.80
2019-01-09T21:20:30.069Z,2.90
2019-01-09T21:23:11.177Z,2.90
2019-01-09T21:25:51.593Z,2.90
2019-01-09T21:28:32.410Z,2.90
2019-01-09T21:31:13.527Z,2.90
2019-01-09T21:33:54.212Z,2.90
2019-01-09T21:36:35.056Z,2.90
2019-01-09T21:39:15.303Z,2.90
2019-01-09T21:41:56.023Z,2.90
2019-01-09T21:44:37.237Z,2.90
2019-01-09T21:47:17.702Z,2.90
2019-01-09T21:49:58.030Z,2.90
2019-01-09T21:52:38.958Z,2.90
2019-01-09T21:55:19.798Z,2.90
2019-01-09T21:58:00.593Z,2.90
2019-01-09T22:00:41.171Z,2.80
2019-01-09T22:03:21.919Z,2.80
2019-01-09T22:06:02.990Z,2.80
2019-01-09T22:08:43.513Z,2.80
2019-01-09T22:11:24.146Z,2.80
2019-01-09T22:14:05.165Z,2.80
2019-01-09T22:16:45.890Z,2.80
2019-01-09T22:19:26.634Z,2.80
2019-01-09T22:22:07.107Z,2.80
2019-01-09T22:24:47.762Z,2.80
2019-01-09T22:27:29.037Z,2.80
2019-01-09T22:30:09.965Z,2.80
2019-01-09T22:32:51.322Z,2.70
2019-01-09T22:35:41.106Z,2.80
2019-01-09T22:38:15.351Z,2.80
2019-01-09T22:40:56.184Z,2.90
2019-01-09T22:43:36.838Z,2.80
2019-01-09T22:46:17.442Z,2.80
2019-01-09T22:48:58.138Z,2.80
2019-01-09T22:51:38.615Z,2.80
2019-01-09T22:54:19.498Z,2.80
2019-01-09T22:57:00.182Z,2.70
2019-01-09T22:59:41.218Z,2.80
2019-01-09T23:02:22.109Z,2.80
2019-01-09T23:05:02.504Z,2.70
2019-01-09T23:07:43.266Z,2.70
2019-01-09T23:10:23.769Z,2.70
2019-01-09T23:13:04.699Z,2.70
2019-01-09T23:15:45.440Z,2.70
2019-01-09T23:18:26.050Z,2.70
2019-01-09T23:21:06.945Z,2.70
2019-01-09T23:23:47.430Z,2.60
2019-01-09T23:26:28.160Z,2.70
2019-01-09T23:29:08.826Z,2.70
2019-01-09T23:31:49.690Z,2.70
2019-01-09T23:34:30.271Z,2.60
2019-01-09T23:37:10.987Z,2.60
2019-01-09T23:39:51.501Z,2.70
2019-01-09T23:42:32.395Z,2.60
2019-01-09T23:45:13.156Z,2.60
2019-01-09T23:47:54.430Z,2.60
2019-01-09T23:50:35.391Z,2.60
2019-01-09T23:53:15.910Z,2.50
2019-01-09T23:55:56.572Z,2.50
2019-01-09T23:58:36.851Z,2.50
